Time;durP1;ratioP1;P1;durP2;ratioP2;P2;SDS_P1;SDS_P2;PMS_P1;PMS_P2;Temp;Humidity;BMP_temperature;BMP_pressure;BME280_temperature;BME280_humidity;BME280_pressure;Samples;Min_cycle;Max_cycle;Signal;HPM_P1;HPM_P2
2022/05/13 00:03:48;;;;;;;11.20;4.60;;;;;;;10.00;60.85;99603.95;425829;1286;144062;-46
2022/05/13 00:13:55;;;;;;;7.10;4.70;;;;;;;10.00;61.18;99603.56;426815;1285;141732;-49
2022/05/13 00:24:01;;;;;;;7.90;5.10;;;;;;;9.95;61.52;99598.96;426737;1286;143983;-53
2022/05/13 00:34:06;;;;;;;10.40;5.80;;;;;;;9.89;61.84;99597.77;425820;1285;141859;-49
2022/05/13 00:44:13;;;;;;;9.70;5.50;;;;;;;9.76;62.05;99600.27;427562;1285;141616;-50
2022/05/13 00:54:19;;;;;;;8.60;5.00;;;;;;;9.70;62.48;99605.55;426346;1285;142820;-50
2022/05/13 01:04:25;;;;;;;6.80;6.00;;;;;;;9.61;62.82;99604.33;426416;1287;142664;-49
2022/05/13 01:14:36;;;;;;;12.20;6.70;;;;;;;9.54;62.95;99602.10;426350;1287;142593;-49
2022/05/13 01:24:42;;;;;;;8.20;5.20;;;;;;;9.48;63.21;99597.20;425685;1287;145638;-48
2022/05/13 01:34:48;;;;;;;8.40;5.50;;;;;;;9.39;63.43;99599.34;426806;1285;141781;-49
2022/05/13 01:44:54;;;;;;;7.60;5.30;;;;;;;9.23;63.79;99586.45;427199;1286;142548;-50
2022/05/13 01:54:59;;;;;;;10.30;5.90;;;;;;;9.03;64.15;99588.13;426537;1285;145679;-49
2022/05/13 02:05:06;;;;;;;6.30;4.60;;;;;;;8.92;64.51;99587.65;427160;1285;142064;-50
2022/05/13 02:15:13;;;;;;;10.40;5.20;;;;;;;8.87;64.61;99582.04;427734;1285;142327;-52
2022/05/13 02:25:19;;;;;;;8.60;5.40;;;;;;;8.77;64.82;99580.67;427258;1285;141830;-47
2022/05/13 02:35:25;;;;;;;7.60;5.60;;;;;;;8.56;65.38;99572.61;426624;1285;142130;-50
2022/05/13 02:45:31;;;;;;;5.90;4.20;;;;;;;8.36;65.41;99568.42;425841;1285;141654;-46
2022/05/13 02:55:37;;;;;;;7.20;4.30;;;;;;;8.19;65.72;99571.80;426966;1286;141482;-50
2022/05/13 03:05:43;;;;;;;16.40;5.70;;;;;;;8.06;65.91;99573.37;426628;1285;145859;-47
2022/05/13 03:15:49;;;;;;;8.90;4.70;;;;;;;8.00;66.05;99573.85;426034;1285;148038;-47
2022/05/13 03:25:55;;;;;;;6.60;4.80;;;;;;;8.13;66.04;99568.77;426546;1287;141803;-48
2022/05/13 03:36:01;;;;;;;7.40;4.80;;;;;;;8.45;65.80;99564.62;426302;1286;142991;-45
2022/05/13 03:46:07;;;;;;;12.10;5.50;;;;;;;8.76;65.22;99563.98;426478;1285;141601;-47
2022/05/13 03:56:13;;;;;;;4.70;4.00;;;;;;;9.22;64.63;99560.84;426949;1285;143718;-49
2022/05/13 04:16:44;;;;;;;8.70;3.80;;;;;;;13.75;62.11;99554.21;426628;1285;142198;-50
2022/05/13 04:26:50;;;;;;;8.20;4.00;;;;;;;19.27;54.78;99549.05;427299;1285;142267;-45
2022/05/13 04:36:56;;;;;;;7.40;4.00;;;;;;;23.11;46.11;99537.27;426155;1287;143626;-50
2022/05/13 04:47:02;;;;;;;7.90;4.00;;;;;;;20.47;44.62;99543.54;426546;1286;141480;-48
2022/05/13 04:57:09;;;;;;;5.70;4.30;;;;;;;27.08;40.73;99533.50;426805;1285;143597;-50
2022/05/13 05:07:15;;;;;;;9.70;3.40;;;;;;;33.49;32.79;99524.54;426439;1287;142776;-49
2022/05/13 05:17:20;;;;;;;5.00;2.90;;;;;;;37.21;27.12;99520.94;426652;1285;141681;-50
2022/05/13 05:27:26;;;;;;;5.10;2.90;;;;;;;40.90;23.23;99519.80;425407;1287;142639;-52
2022/05/13 05:37:33;;;;;;;9.80;3.40;;;;;;;43.49;19.86;99527.77;427517;1287;141965;-54
2022/05/13 05:47:39;;;;;;;11.80;2.80;;;;;;;45.36;17.26;99527.92;429273;1286;141984;-50
2022/05/13 05:57:58;;;;;;;4.00;1.60;;;;;;;46.93;15.16;99530.11;425321;1287;142293;-54
2022/05/13 06:08:05;;;;;;;2.90;1.50;;;;;;;47.94;13.70;99534.40;427215;1287;145237;-52
2022/05/13 06:18:11;;;;;;;4.30;1.30;;;;;;;48.54;12.71;99529.64;427296;1286;140865;-50
2022/05/13 06:28:17;;;;;;;8.70;2.30;;;;;;;49.79;11.47;99533.17;426806;1286;140995;-52
2022/05/13 06:38:25;;;;;;;3.80;2.30;;;;;;;51.83;10.40;99531.56;426714;1287;145115;-52
2022/05/13 06:48:31;;;;;;;3.10;2.90;;;;;;;52.16;9.26;99528.08;426504;1287;142244;-52
2022/05/13 06:58:37;;;;;;;3.40;3.20;;;;;;;51.85;8.82;99517.25;426707;1287;142958;-52
2022/05/13 07:08:43;;;;;;;6.40;5.90;;;;;;;53.37;8.34;99503.36;426470;1287;145488;-54
2022/05/13 07:18:48;;;;;;;16.10;8.10;;;;;;;53.87;7.88;99496.69;426303;1286;141561;-52
2022/05/13 07:28:54;;;;;;;11.90;11.00;;;;;;;54.86;7.47;99489.80;426589;1287;141422;-52
2022/05/13 07:49:24;;;;;;;13.30;12.80;;;;;;;55.04;7.01;99478.86;426972;1285;145904;-53
2022/05/13 07:59:31;;;;;;;3.00;2.00;;;;;;;54.06;7.19;99472.94;427047;1287;145252;-52
2022/05/13 08:09:37;;;;;;;7.20;1.10;;;;;;;45.32;8.76;99459.44;426350;1285;142575;-51
2022/05/13 08:19:42;;;;;;;3.70;0.50;;;;;;;36.06;11.99;99467.94;427330;1287;145373;-48
2022/05/13 08:29:48;;;;;;;3.00;1.20;;;;;;;32.36;14.73;99461.39;427648;1287;142074;-53
2022/05/13 08:39:55;;;;;;;8.70;0.90;;;;;;;29.43;16.55;99466.60;426419;1287;142545;-51
2022/05/13 08:50:09;;;;;;;3.30;0.90;;;;;;;28.20;18.41;99458.52;427554;1285;141686;-54
2022/05/13 09:00:24;;;;;;;5.50;0.90;;;;;;;27.46;19.26;99445.37;426655;1287;142479;-51
2022/05/13 09:10:30;;;;;;;4.10;0.90;;;;;;;26.48;20.27;99432.20;427173;1287;145197;-51
2022/05/13 09:20:45;;;;;;;1.90;1.00;;;;;;;25.78;20.96;99430.90;426875;1287;141551;-51
2022/05/13 09:30:55;;;;;;;1.10;0.70;;;;;;;25.20;21.49;99421.23;425994;1287;142047;-49
2022/05/13 09:41:04;;;;;;;2.40;0.80;;;;;;;24.76;21.80;99406.98;426994;1287;399088;-47
2022/05/13 09:51:26;;;;;;;6.80;1.10;;;;;;;24.54;22.19;99397.73;427002;1286;142847;-50
2022/05/13 10:01:32;;;;;;;2.60;1.30;;;;;;;24.70;22.30;99393.29;428062;1287;141684;-50
2022/05/13 10:22:12;;;;;;;4.50;1.20;;;;;;;24.59;22.60;99362.00;427448;1286;142672;-46
2022/05/13 10:32:25;;;;;;;1.50;1.00;;;;;;;24.34;22.88;99367.64;428672;1286;141164;-49
2022/05/13 10:42:36;;;;;;;1.60;0.90;;;;;;;24.19;23.25;99346.39;428008;1286;140782;-48
2022/05/13 10:52:54;;;;;;;1.20;0.70;;;;;;;24.03;23.51;99336.63;427509;1287;140565;-51
2022/05/13 11:03:32;;;;;;;1.50;0.60;;;;;;;24.30;23.88;99322.05;427219;1287;140853;-51
2022/05/13 11:13:53;;;;;;;1.30;0.60;;;;;;;24.10;23.88;99321.01;427657;1286;141764;-48
2022/05/13 11:34:48;;;;;;;2.80;1.00;;;;;;;24.26;23.99;99295.02;426979;1285;141250;-46
2022/05/13 11:45:09;;;;;;;1.60;0.80;;;;;;;24.69;23.95;99289.56;426577;1286;142460;-51
2022/05/13 11:55:45;;;;;;;2.50;1.40;;;;;;;24.55;23.67;99286.70;427040;1287;180513;-48
2022/05/13 12:06:04;;;;;;;3.20;0.80;;;;;;;24.91;23.79;99277.16;427368;1285;141657;-48
2022/05/13 12:16:21;;;;;;;4.00;1.00;;;;;;;25.08;23.70;99259.20;426594;1287;141729;-53
2022/05/13 12:27:03;;;;;;;1.30;1.20;;;;;;;25.24;23.85;99247.39;427297;1287;142412;-51
2022/05/13 12:48:11;;;;;;;9.20;1.40;;;;;;;24.76;24.34;99236.44;427005;1286;142414;-47
2022/05/13 12:58:20;;;;;;;3.30;0.70;;;;;;;25.00;24.26;99228.94;427494;1285;141805;-49
2022/05/13 13:08:33;;;;;;;4.20;1.80;;;;;;;24.79;24.46;99213.38;428040;1285;142978;-51
2022/05/13 13:18:41;;;;;;;2.40;1.40;;;;;;;24.60;24.85;99202.88;426162;1286;143183;-49
2022/05/13 13:28:54;;;;;;;4.70;1.50;;;;;;;24.40;25.08;99199.33;427187;1286;141551;-45
2022/05/13 13:39:02;;;;;;;2.10;1.00;;;;;;;24.32;25.53;99195.60;426621;1286;145524;-49
2022/05/13 13:49:08;;;;;;;2.50;1.80;;;;;;;24.46;25.29;99182.29;427258;1285;143101;-51
2022/05/13 13:59:24;;;;;;;1.60;1.10;;;;;;;24.07;25.78;99175.69;431243;1285;141687;-49
2022/05/13 14:09:34;;;;;;;5.00;1.80;;;;;;;23.54;26.19;99162.59;425596;1287;141859;-48
2022/05/13 14:19:42;;;;;;;4.50;1.30;;;;;;;23.00;26.81;99143.90;428331;1286;141981;-53
2022/05/13 14:29:49;;;;;;;2.10;1.10;;;;;;;23.06;27.16;99141.70;426673;1285;142144;-49
2022/05/13 14:39:57;;;;;;;1.60;0.90;;;;;;;23.26;27.09;99122.82;426535;1285;143123;-53
2022/05/13 14:50:14;;;;;;;1.80;1.00;;;;;;;23.29;27.24;99104.64;426810;1286;140860;-49
2022/05/13 15:00:22;;;;;;;4.20;1.10;;;;;;;22.87;27.53;99098.16;426992;1286;141659;-50
2022/05/13 15:10:28;;;;;;;;;;;;;;;23.07;27.64;99089.16;427604;1285;141404;-49
2022/05/13 15:20:35;;;;;;;3.20;0.80;;;;;;;23.22;27.51;99091.75;426961;1285;127290;-52
2022/05/13 15:30:41;;;;;;;2.50;1.50;;;;;;;23.11;27.59;99089.32;426547;1285;145659;-52
2022/05/13 15:40:47;;;;;;;6.80;2.00;;;;;;;22.96;28.09;99102.68;426905;1286;142338;-52
2022/05/13 16:01:16;;;;;;;5.70;2.20;;;;;;;22.32;29.29;99115.31;426849;1285;142512;-51
2022/05/13 16:11:28;;;;;;;9.60;2.30;;;;;;;20.92;31.06;99108.31;426774;1285;144082;-50
2022/05/13 16:21:39;;;;;;;3.80;2.40;;;;;;;20.32;32.41;99128.45;426108;1285;141796;-48
2022/05/13 16:31:45;;;;;;;4.10;3.20;;;;;;;19.41;35.83;99240.95;426651;1285;142289;-48
2022/05/13 16:41:51;;;;;;;5.70;4.40;;;;;;;17.83;43.27;99209.10;426351;1285;141802;-48
2022/05/13 16:51:57;;;;;;;4.90;3.00;;;;;;;17.31;46.08;99197.00;426887;1285;145519;-48
2022/05/13 17:02:03;;;;;;;3.70;2.30;;;;;;;16.75;47.41;99198.36;427243;1285;145711;-52
2022/05/13 17:22:37;;;;;;;2.70;1.60;;;;;;;16.90;48.69;99207.52;426839;1285;146846;-51
2022/05/13 17:32:44;;;;;;;3.00;2.00;;;;;;;16.66;48.49;99217.20;426316;1285;142548;-47
2022/05/13 17:42:51;;;;;;;5.80;3.70;;;;;;;16.05;49.80;99239.27;426727;1285;141262;-49
2022/05/13 17:52:57;;;;;;;6.80;4.20;;;;;;;15.69;51.95;99258.46;426340;1285;142659;-52
2022/05/13 18:03:04;;;;;;;3.10;2.80;;;;;;;15.48;53.48;99278.30;426243;1287;141524;-49
2022/05/13 18:13:11;;;;;;;5.30;3.90;;;;;;;15.15;54.97;99316.66;426611;1286;141304;-48
2022/05/13 18:23:17;;;;;;;6.40;5.50;;;;;;;15.01;54.56;99353.64;427194;1287;141564;-50
2022/05/13 18:33:30;;;;;;;5.40;4.50;;;;;;;14.80;54.33;99376.86;426928;1286;141774;-47
2022/05/13 18:54:01;;;;;;;8.20;3.50;;;;;;;14.32;53.08;99412.02;426846;1285;142224;-48
2022/05/13 19:04:08;;;;;;;6.20;4.30;;;;;;;14.12;53.14;99430.21;425750;1285;144938;-49
2022/05/13 19:14:14;;;;;;;5.10;4.50;;;;;;;13.75;53.78;99456.20;426558;1285;145803;-49
2022/05/13 19:24:19;;;;;;;8.90;5.00;;;;;;;13.51;54.50;99461.43;426266;1285;142949;-51
2022/05/13 19:34:26;;;;;;;12.50;5.50;;;;;;;13.48;54.95;99473.43;426600;1285;141885;-50
2022/05/13 19:44:31;;;;;;;6.90;5.10;;;;;;;13.50;55.13;99489.30;426973;1285;146209;-48
2022/05/13 19:54:37;;;;;;;5.60;4.90;;;;;;;13.45;55.59;99500.73;426013;1285;144576;-49
2022/05/13 20:10:38;;;;;;;6.70;4.80;;;;;;;13.37;55.95;99509.38;426928;1286;141482;-48
2022/05/13 20:15:11;;;;;;;13.00;7.90;;;;;;;13.21;56.34;99519.95;426359;1285;140675;-51
2022/05/13 20:25:18;;;;;;;6.00;5.40;;;;;;;13.09;56.46;99522.76;426292;1286;145394;-49
2022/05/13 20:35:24;;;;;;;6.30;5.50;;;;;;;12.70;57.00;99530.03;426228;1285;141452;-51
2022/05/13 20:45:30;;;;;;;5.40;4.40;;;;;;;12.37;57.55;99544.55;425910;1285;142129;-58
2022/05/13 20:55:37;;;;;;;8.90;4.80;;;;;;;12.14;58.18;99561.29;426901;1285;141832;-64
2022/05/13 21:05:44;;;;;;;8.30;3.80;;;;;;;11.91;58.11;99569.13;426712;1285;141335;-65
2022/05/13 21:15:49;;;;;;;9.20;3.60;;;;;;;11.68;57.51;99580.66;425607;1285;141906;-60
2022/05/13 21:25:56;;;;;;;4.90;3.10;;;;;;;11.41;57.25;99580.06;427473;1285;141246;-60
2022/05/13 21:46:40;;;;;;;7.80;4.50;;;;;;;10.97;58.24;99590.36;425247;1285;141444;-47
2022/05/13 21:56:46;;;;;;;6.30;3.10;;;;;;;10.75;58.51;99597.15;425988;1285;141267;-47
2022/05/13 22:06:52;;;;;;;4.10;3.00;;;;;;;10.55;58.83;99599.87;427985;1272;143191;-48
2022/05/13 22:16:58;;;;;;;4.20;3.20;;;;;;;10.56;59.10;99603.98;427624;1284;141699;-49
2022/05/13 22:27:05;;;;;;;4.20;2.40;;;;;;;10.72;58.68;99600.13;427677;1284;142450;-53
2022/05/13 22:37:10;;;;;;;5.50;3.20;;;;;;;10.39;58.73;99605.70;428101;1284;142391;-54
2022/05/13 22:47:16;;;;;;;2.80;2.30;;;;;;;10.11;59.67;99610.79;427500;1284;141773;-54
2022/05/13 22:57:22;;;;;;;4.10;2.30;;;;;;;9.88;60.70;99610.08;427188;1284;143046;-49
2022/05/13 23:17:52;;;;;;;5.80;3.60;;;;;;;9.41;62.27;99620.52;427526;1284;142889;-51
2022/05/13 23:27:58;;;;;;;5.60;3.50;;;;;;;9.23;62.66;99627.98;427471;1284;143293;-50
2022/05/13 23:38:03;;;;;;;7.50;4.10;;;;;;;9.06;62.92;99630.89;426718;1284;142452;-48
2022/05/13 23:48:10;;;;;;;6.70;3.60;;;;;;;8.86;63.90;99628.56;427431;1284;141970;-47
2022/05/13 23:58:16;;;;;;;4.70;3.20;;;;;;;8.62;64.43;99624.13;427844;1284;142951;-52
